Niagara Falls, NY

9:48 AM EST on December 19, 2014 (GMT -0500)
Buffalo Niagara International | Change Station
CLOSE
Current Station
Airport
Location: Buffalo,
Elevation: 702 ft
Nearby Weather Stations

Elev 702 ft 42.94 °N, 78.74 °W | Updated 54 minutes ago

Overcast
Overcast
26 °F
Feels Like 19 °F
N
6
Wind Variable Wind from WNW

Today
High -- | Low -- °F
--% Chance of Precip.
Yesterday
High -- | Low -- °F
Precip. -- in
7:43 AM 4:43 PM
Waning Crescent, 7% visible
Pressure 30.20 in
Visibility 4.0 miles
Clouds Few 1000 ft
Mostly Cloudy 1500 ft
Overcast 3700 ft
Windchill 19 °F
Dew Point 20 °F
Humidity 78%
Rainfall 0.00 in
Snow Depth Not available.
UV 0 out of 12
Pollen .10 out of 12
Air Quality Not available.
Flu Activity Not available.
METAR KBUF 191354Z 29005KT 4SM -SN FEW010 BKN015 OVC037 M03/M07 A3017 RMK AO2 SLP226 CIG 013V018 VIS HYR SE-SW P0000 T10331067

More Conditions Fewer Conditions

Pressure 30.20 in
Visibility 4.0 miles
Clouds Few 1000 ft
Mostly Cloudy 1500 ft
Overcast 3700 ft
Windchill 19 °F
Dew Point 20 °F
Humidity 78%
Rainfall 0.00 in
Snow Depth Not available.
UV 0 out of 12
Pollen .10 out of 12
Air Quality Not available.
Flu Activity Not available.
METAR KBUF 191354Z 29005KT 4SM -SN FEW010 BKN015 OVC037 M03/M07 A3017 RMK AO2 SLP226 CIG 013V018 VIS HYR SE-SW P0000 T10331067

More Conditions Fewer Conditions

10-Day Weather Forecast

Almanac

Astronomy

Dec. 19, 2014 Rise Set
Actual Time
Civil Twilight
Nautical Twilight
Astronomical Twilight
Moon
Length of Visible Light
Length of Day
Tomorrow will be .
, % of the Moon is Illuminated

Today's Extremes

State Highs State Lows

Community

WunderPhotos

Upload Photos

1,778,988 photos uploaded!

WunderBlogs® & News

Nearby

Air Quality

  Air Quality AQ Index Pollutant
Not available.

Snow Depth

Station Depth Elevation

Earthquake Activity

City Distance Mag. Time & Date
Minimum magnitude displayed is 2.5.

Coastal Water Temperatures

Place Temperature

Nearby Weather Stations